createdAt,value
2022-11-24T10:04:34.710Z,99940.47
2022-11-24T10:07:12.801Z,100021.78
2022-11-24T10:09:56.408Z,100015.94
2022-11-24T10:12:42.147Z,99913.53
2022-11-24T10:15:53.455Z,100016.59
2022-11-24T10:18:33.699Z,100073.69
2022-11-24T10:21:28.122Z,100016.75
2022-11-24T10:24:10.123Z,100020.25
2022-11-24T10:26:39.637Z,100027.34
2022-11-24T10:29:12.681Z,100024.41
2022-11-24T10:31:44.748Z,100027.91
2022-11-24T10:34:18.129Z,100024.63
2022-11-24T10:37:10.827Z,100021.41
2022-11-24T10:40:04.007Z,100017.31
2022-11-24T10:42:33.584Z,100025.31
2022-11-24T10:45:00.491Z,100030.00
2022-11-24T10:47:27.972Z,99874.34
2022-11-24T10:50:03.122Z,100023.75
2022-11-24T10:52:35.292Z,99888.75
2022-11-24T10:55:05.517Z,100030.91
2022-11-24T10:57:33.622Z,100025.97
2022-11-24T11:00:02.070Z,99980.78
2022-11-24T11:02:37.677Z,99963.56
2022-11-24T11:05:32.655Z,100034.34
2022-11-24T11:08:19.761Z,100035.06
2022-11-24T11:10:49.383Z,100034.44
2022-11-24T11:13:30.152Z,99923.00
2022-11-24T11:15:58.969Z,99984.53
2022-11-24T11:18:33.007Z,100017.75
2022-11-24T11:21:02.442Z,99945.31
2022-11-24T11:23:32.762Z,99948.66
2022-11-24T11:26:21.507Z,100055.63
2022-11-24T11:35:04.069Z,99941.97
2022-11-24T11:37:33.219Z,99855.38
2022-11-24T11:40:00.580Z,99895.03
2022-11-24T11:45:35.695Z,99954.03
2022-11-24T11:48:03.029Z,100057.28
2022-11-24T11:50:42.939Z,100057.22
2022-11-24T11:53:37.111Z,100074.19
2022-11-24T11:56:27.277Z,100071.38
2022-11-24T11:59:11.194Z,100046.28
2022-11-24T12:01:46.834Z,100071.94
2022-11-24T12:04:40.740Z,99956.19
2022-11-24T12:07:45.491Z,100071.31
2022-11-24T12:10:34.038Z,100070.28
2022-11-24T12:13:00.844Z,100073.72
2022-11-24T12:15:43.070Z,100078.47
2022-11-24T12:18:55.141Z,100073.97
2022-11-24T12:21:26.608Z,100036.75
2022-11-24T12:24:11.937Z,100064.28
2022-11-24T12:27:01.059Z,100069.72
2022-11-24T12:29:59.873Z,100009.56
2022-11-24T12:32:41.834Z,100064.47
2022-11-24T12:35:14.783Z,100056.00
2022-11-24T12:38:14.810Z,100061.41
2022-11-24T12:41:39.298Z,100057.69
2022-11-24T12:43:59.752Z,100063.94
2022-11-24T12:46:32.843Z,100061.91
2022-11-24T12:49:24.141Z,100059.78
2022-11-24T12:52:00.963Z,100066.06
2022-11-24T12:54:39.844Z,100065.88
2022-11-24T12:57:16.357Z,100066.72
2022-11-24T13:00:35.434Z,100071.50
2022-11-24T13:03:31.515Z,100073.91
2022-11-24T13:06:03.781Z,99747.69
2022-11-24T13:08:31.449Z,99993.63
2022-11-24T13:11:20.962Z,100083.75
2022-11-24T13:14:04.860Z,100041.22
2022-11-24T13:16:37.181Z,99982.78
2022-11-24T13:19:14.198Z,100088.50
2022-11-24T13:21:40.960Z,100093.22
2022-11-24T13:24:16.696Z,100099.47
2022-11-24T13:26:47.397Z,100046.19
2022-11-24T13:29:36.232Z,100098.84
2022-11-24T13:32:03.147Z,100097.63
2022-11-24T13:34:39.372Z,100098.19
2022-11-24T13:37:35.422Z,100095.31
2022-11-24T13:40:05.556Z,100099.72
2022-11-24T13:42:55.261Z,100108.41
2022-11-24T13:45:49.201Z,100106.19
2022-11-24T13:48:18.714Z,100115.63
2022-11-24T13:50:51.969Z,100107.66
2022-11-24T13:53:43.500Z,100102.81
2022-11-24T13:56:14.192Z,100098.72
2022-11-24T13:58:44.209Z,100110.03
2022-11-24T14:01:19.263Z,100056.34
2022-11-24T14:04:31.891Z,100116.91
2022-11-24T14:07:08.208Z,100136.47
2022-11-24T14:09:48.198Z,100118.34
2022-11-24T14:12:16.955Z,100115.97
2022-11-24T14:14:45.851Z,100123.66
2022-11-24T14:17:18.547Z,100121.09
2022-11-24T14:19:48.178Z,100128.56
2022-11-24T14:22:31.427Z,99768.00
2022-11-24T14:25:00.693Z,100057.31
2022-11-24T14:27:34.280Z,100102.63
2022-11-24T14:30:04.210Z,100121.38
2022-11-24T14:32:31.349Z,100025.13
2022-11-24T14:34:58.270Z,100072.38
2022-11-24T14:37:25.164Z,100130.03
2022-11-24T14:39:53.002Z,99963.00
2022-11-24T14:42:30.412Z,100065.94
2022-11-24T14:45:00.707Z,100093.44
2022-11-24T14:47:43.513Z,100128.88
2022-11-24T14:50:13.730Z,100114.22
2022-11-24T14:53:04.341Z,100129.25
2022-11-24T14:55:32.966Z,100083.56
2022-11-24T14:58:00.107Z,100100.09
2022-11-24T15:00:32.944Z,100135.88
2022-11-24T15:03:02.893Z,100151.66
2022-11-24T15:05:57.181Z,100144.94
2022-11-24T15:08:33.952Z,100029.66
2022-11-24T15:11:03.105Z,99967.69
2022-11-24T15:13:37.295Z,100160.44
2022-11-24T15:16:15.943Z,100157.22
2022-11-24T15:18:45.902Z,100160.91
2022-11-24T15:21:18.861Z,100048.91
2022-11-24T15:24:24.975Z,100158.44
2022-11-24T15:26:59.077Z,100156.94
2022-11-24T15:29:26.195Z,100166.06
2022-11-24T15:31:53.281Z,100162.91
2022-11-24T15:34:20.416Z,100097.41
2022-11-24T15:36:47.254Z,99999.50
2022-11-24T15:39:13.984Z,100135.78
2022-11-24T15:41:41.786Z,100164.72
2022-11-24T15:44:10.149Z,100014.91
2022-11-24T15:46:38.741Z,100145.56
2022-11-24T15:49:06.709Z,100044.22
2022-11-24T15:51:33.968Z,100142.69
2022-11-24T15:54:01.625Z,100037.78
2022-11-24T15:56:34.811Z,100241.41
2022-11-24T15:59:02.181Z,100187.34
2022-11-24T16:01:33.131Z,100182.72
2022-11-24T16:04:01.303Z,100016.25
2022-11-24T16:06:28.229Z,99981.03
2022-11-24T16:08:55.429Z,100138.41
2022-11-24T16:11:22.992Z,100104.00
2022-11-24T16:13:53.325Z,100168.25
2022-11-24T16:16:21.931Z,99847.53
2022-11-24T16:18:48.891Z,100151.16
2022-11-24T16:21:15.771Z,99975.81
2022-11-24T16:23:42.651Z,100158.81
2022-11-24T16:26:10.252Z,100131.19
2022-11-24T16:28:36.986Z,100146.88
2022-11-24T16:31:04.017Z,100005.31
2022-11-24T16:33:31.262Z,100195.50
2022-11-24T16:35:58.540Z,100178.97
2022-11-24T16:38:25.459Z,100159.38
2022-11-24T16:40:54.223Z,100137.25
2022-11-24T16:43:21.237Z,100195.88
2022-11-24T16:46:16.065Z,100202.97
2022-11-24T16:48:44.044Z,100209.81
2022-11-24T16:51:11.772Z,100211.13
2022-11-24T16:53:38.841Z,100147.88
2022-11-24T16:56:06.424Z,100208.09
2022-11-24T16:58:33.737Z,100118.72
2022-11-24T17:01:10.427Z,100199.72
2022-11-24T17:03:37.984Z,100136.56
2022-11-24T17:06:10.272Z,100212.53
2022-11-24T17:08:39.405Z,100026.28
2022-11-24T17:11:17.458Z,100202.53
2022-11-24T17:13:45.680Z,100216.06
2022-11-24T17:16:14.305Z,100163.78
2022-11-24T17:18:41.973Z,100229.47
2022-11-24T17:21:13.240Z,99860.47
2022-11-24T17:23:40.395Z,100223.81
2022-11-24T17:26:10.509Z,100189.66
2022-11-24T17:28:38.076Z,100132.78
2022-11-24T17:31:25.348Z,100038.69
2022-11-24T17:33:57.323Z,100239.34
2022-11-24T17:36:24.183Z,100166.31
2022-11-24T17:38:51.180Z,100235.38
2022-11-24T17:41:19.312Z,100181.16
2022-11-24T17:43:53.507Z,100173.75
2022-11-24T17:46:20.324Z,100176.41
2022-11-24T17:48:47.807Z,100175.44
2022-11-24T17:51:17.437Z,100180.97
2022-11-24T17:53:46.751Z,100111.13
2022-11-24T17:56:16.506Z,100232.81
2022-11-24T17:58:43.720Z,100152.56
2022-11-24T18:01:12.139Z,100229.19
2022-11-24T18:03:40.476Z,100123.06
2022-11-24T18:06:12.529Z,100232.41
2022-11-24T18:08:41.350Z,100178.25
2022-11-24T18:11:23.542Z,100215.25
2022-11-24T18:13:59.738Z,100251.53
2022-11-24T18:16:29.803Z,100154.59
2022-11-24T18:19:14.061Z,100135.41
2022-11-24T18:21:41.440Z,100238.13
2022-11-24T18:24:09.754Z,100247.56
2022-11-24T18:26:36.589Z,100139.41
2022-11-24T18:29:03.750Z,100129.66
2022-11-24T18:31:32.247Z,100270.22
2022-11-24T18:33:59.713Z,100269.22
2022-11-24T18:36:30.297Z,100277.72
2022-11-24T18:39:01.595Z,100273.84
2022-11-24T18:41:28.361Z,99958.16
2022-11-24T18:43:55.064Z,100148.97
2022-11-24T18:46:21.971Z,100211.84
2022-11-24T18:48:48.990Z,100202.50
2022-11-24T18:51:15.749Z,100195.69
2022-11-24T18:53:44.861Z,100266.09
2022-11-24T18:56:14.356Z,100233.88
2022-11-24T18:58:41.194Z,100244.66
2022-11-24T19:01:14.928Z,100268.28
2022-11-24T19:03:48.780Z,100267.94
2022-11-24T19:06:18.863Z,100165.13
2022-11-24T19:08:46.359Z,100263.81
2022-11-24T19:11:18.820Z,100268.09
2022-11-24T19:13:45.883Z,100270.41
2022-11-24T19:16:13.150Z,100270.75
2022-11-24T19:18:40.093Z,100273.75
2022-11-24T19:21:07.007Z,100207.81
2022-11-24T19:23:33.789Z,100285.34
2022-11-24T19:26:01.868Z,100284.00
2022-11-24T19:28:31.540Z,100276.34
2022-11-24T19:31:05.713Z,100284.63
2022-11-24T19:33:32.945Z,100287.78
2022-11-24T19:36:05.822Z,100292.19
2022-11-24T19:38:33.854Z,100219.56
2022-11-24T19:41:02.850Z,100281.28
2022-11-24T19:43:31.096Z,100300.78
2022-11-24T19:46:27.967Z,100295.69
2022-11-24T19:48:57.209Z,100193.78
2022-11-24T19:51:34.698Z,100291.59
2022-11-24T19:54:02.510Z,100290.28
2022-11-24T19:56:31.733Z,100297.47
2022-11-24T19:58:58.479Z,100295.69
2022-11-24T20:01:30.706Z,100245.81
2022-11-24T20:04:00.070Z,100288.94
2022-11-24T20:06:31.274Z,100302.03
2022-11-24T20:08:59.069Z,100294.28
2022-11-24T20:11:28.362Z,100292.47
2022-11-24T20:13:56.394Z,100159.38
2022-11-24T20:16:29.714Z,100287.38
2022-11-24T20:18:59.612Z,100178.50
2022-11-24T20:21:29.052Z,100283.91
2022-11-24T20:24:01.266Z,100282.75
2022-11-24T20:26:31.877Z,100260.09
2022-11-24T20:28:59.701Z,100282.22
2022-11-24T20:31:59.018Z,100271.59
2022-11-24T20:34:27.025Z,100278.38
2022-11-24T20:36:53.806Z,100280.34
2022-11-24T20:39:25.368Z,100284.25
2022-11-24T20:41:53.488Z,100280.63
2022-11-24T20:44:23.074Z,100276.22
2022-11-24T20:46:50.560Z,100245.13
2022-11-24T20:49:21.776Z,100186.88
2022-11-24T20:51:49.108Z,100313.84
2022-11-24T20:54:17.889Z,100205.19
2022-11-24T20:56:46.376Z,100297.00
2022-11-24T20:59:15.856Z,100322.22
2022-11-24T21:01:45.385Z,100321.19
2022-11-24T21:04:16.114Z,100237.66
2022-11-24T21:06:42.902Z,100270.06
2022-11-24T21:09:10.051Z,100159.25
2022-11-24T21:11:37.977Z,100279.09
2022-11-24T21:14:05.224Z,100297.56
2022-11-24T21:16:34.435Z,100298.88
2022-11-24T21:19:04.685Z,100319.00
2022-11-24T21:21:34.607Z,100236.03
2022-11-24T21:24:07.908Z,100310.00
2022-11-24T21:26:36.805Z,100312.28
2022-11-24T21:29:03.981Z,100315.13
2022-11-24T21:31:30.766Z,100188.34
2022-11-24T21:33:57.533Z,100302.47
2022-11-24T21:36:26.234Z,100310.69
2022-11-24T21:38:57.572Z,100316.03
2022-11-24T21:41:27.254Z,100223.84
2022-11-24T21:43:57.532Z,100243.28
2022-11-24T21:46:24.968Z,100294.28
2022-11-24T21:48:51.649Z,100307.41
2022-11-24T21:51:20.724Z,100320.97
2022-11-24T21:53:47.879Z,100279.25
2022-11-24T21:56:17.601Z,100263.47
2022-11-24T21:58:48.231Z,100322.88
2022-11-24T22:01:17.042Z,100197.25
2022-11-24T22:03:44.126Z,100339.09
2022-11-24T22:06:11.056Z,100319.31
2022-11-24T22:08:38.058Z,100314.47
2022-11-24T22:11:20.996Z,100318.44
2022-11-24T22:13:48.495Z,100325.72
2022-11-24T22:16:20.425Z,100316.09
2022-11-24T22:18:51.069Z,100267.75
2022-11-24T22:21:29.229Z,100249.47
2022-11-24T22:23:56.406Z,100334.81
2022-11-24T22:26:24.089Z,100339.59
2022-11-24T22:28:51.274Z,100344.84
2022-11-24T22:31:20.700Z,100339.84
2022-11-24T22:33:48.451Z,100339.44
2022-11-24T22:36:16.970Z,99986.63
2022-11-24T22:38:43.782Z,100345.63
2022-11-24T22:41:15.624Z,100343.31
2022-11-24T22:43:43.733Z,100352.34
2022-11-24T22:46:15.176Z,100234.25
2022-11-24T22:48:42.655Z,100351.78
2022-11-24T22:51:11.972Z,100271.19
2022-11-24T22:53:39.187Z,100317.09
2022-11-24T22:56:11.105Z,100310.38
2022-11-24T22:58:39.207Z,100371.03
2022-11-24T23:01:09.593Z,100352.56
2022-11-24T23:03:37.127Z,100268.88
2022-11-24T23:06:06.443Z,100370.75
2022-11-24T23:08:35.320Z,100303.97
2022-11-24T23:11:08.106Z,100333.09
2022-11-24T23:13:35.656Z,100355.25
2022-11-24T23:16:04.708Z,100290.16
2022-11-24T23:18:31.900Z,100390.53
2022-11-24T23:21:09.076Z,100375.03
2022-11-24T23:23:35.833Z,100382.44
2022-11-24T23:26:08.279Z,100385.28
2022-11-24T23:28:35.419Z,100246.50
2022-11-24T23:31:10.487Z,100370.16
2022-11-24T23:33:38.295Z,100385.44
2022-11-24T23:36:16.842Z,100378.47
2022-11-24T23:38:44.401Z,100379.63
2022-11-24T23:41:14.670Z,100282.09
2022-11-24T23:43:42.873Z,100331.44
2022-11-24T23:46:12.672Z,100251.91
2022-11-24T23:48:40.003Z,100379.22
2022-11-24T23:51:16.415Z,100379.44
2022-11-24T23:53:43.986Z,100292.75
2022-11-24T23:56:16.232Z,100365.38
2022-11-24T23:58:43.372Z,100363.53
